createdAt,value
2022-11-29T00:00:18.101Z,1.56
2022-11-29T00:01:21.792Z,1.55
2022-11-29T00:02:23.442Z,1.54
2022-11-29T00:03:25.421Z,1.49
2022-11-29T00:04:27.646Z,1.51
2022-11-29T00:05:29.373Z,1.49
2022-11-29T00:06:32.055Z,1.48
2022-11-29T00:07:34.580Z,1.46
2022-11-29T00:08:36.313Z,1.46
2022-11-29T00:09:37.956Z,1.49
2022-11-29T00:10:39.514Z,1.49
2022-11-29T00:11:59.920Z,1.54
2022-11-29T00:13:01.487Z,1.51
2022-11-29T00:14:03.157Z,1.52
2022-11-29T00:15:05.071Z,1.52
2022-11-29T00:16:11.940Z,1.54
2022-11-29T00:17:13.607Z,1.49
2022-11-29T00:18:15.209Z,1.48
2022-11-29T00:19:16.823Z,1.48
2022-11-29T00:20:18.476Z,1.45
2022-11-29T00:21:20.030Z,1.41
2022-11-29T00:22:23.747Z,1.44
2022-11-29T00:23:25.342Z,1.39
2022-11-29T00:24:26.927Z,1.38
2022-11-29T00:25:28.484Z,1.39
2022-11-29T00:26:30.032Z,1.42
2022-11-29T00:27:31.785Z,1.42
2022-11-29T00:28:33.662Z,1.44
2022-11-29T00:29:35.896Z,1.41
2022-11-29T00:30:37.464Z,1.38
2022-11-29T00:31:39.275Z,1.39
2022-11-29T00:32:40.825Z,1.39
2022-11-29T00:33:42.384Z,1.39
2022-11-29T00:34:44.239Z,1.41
2022-11-29T00:35:45.910Z,1.41
2022-11-29T00:36:47.835Z,1.38
2022-11-29T00:37:49.398Z,1.39
2022-11-29T00:38:51.003Z,1.38
2022-11-29T00:39:52.544Z,1.36
2022-11-29T00:40:54.078Z,1.39
2022-11-29T00:41:55.818Z,1.41
2022-11-29T00:42:57.436Z,1.42
2022-11-29T00:43:59.285Z,1.44
2022-11-29T00:45:00.831Z,1.49
2022-11-29T00:46:02.532Z,1.48
2022-11-29T00:47:04.142Z,1.52
2022-11-29T00:48:05.880Z,1.51
2022-11-29T00:49:07.485Z,1.56
2022-11-29T00:50:09.308Z,1.56
2022-11-29T00:51:10.888Z,1.58
2022-11-29T00:52:12.423Z,1.56
2022-11-29T00:53:14.028Z,1.59
2022-11-29T00:54:15.805Z,1.59
2022-11-29T00:55:17.423Z,1.59
2022-11-29T00:56:18.985Z,1.55
2022-11-29T00:57:20.526Z,1.55
2022-11-29T00:58:22.419Z,1.55
2022-11-29T00:59:23.974Z,1.55
2022-11-29T01:00:25.526Z,1.56
2022-11-29T01:01:27.115Z,1.52
2022-11-29T01:02:28.801Z,1.52
2022-11-29T01:03:30.507Z,1.51
2022-11-29T01:04:32.049Z,1.52
2022-11-29T01:05:33.644Z,1.52
2022-11-29T01:06:35.186Z,1.54
2022-11-29T01:07:36.778Z,1.54
2022-11-29T01:08:38.467Z,1.54
2022-11-29T01:09:40.049Z,1.54
2022-11-29T01:10:41.909Z,1.48
2022-11-29T01:11:43.479Z,1.48
2022-11-29T01:12:45.109Z,1.46
2022-11-29T01:13:46.673Z,1.46
2022-11-29T01:14:48.343Z,1.45
2022-11-29T01:15:56.211Z,1.46
2022-11-29T01:16:57.839Z,1.46
2022-11-29T01:17:59.494Z,1.44
2022-11-29T01:19:01.057Z,1.46
2022-11-29T01:20:03.435Z,1.42
2022-11-29T01:21:07.294Z,1.41
2022-11-29T01:22:08.884Z,1.41
2022-11-29T01:23:10.485Z,1.42
2022-11-29T01:24:12.085Z,1.42
2022-11-29T01:25:13.809Z,1.45
2022-11-29T01:26:21.313Z,1.45
2022-11-29T01:27:22.877Z,1.45
2022-11-29T01:28:24.694Z,1.46
2022-11-29T01:29:26.242Z,1.46
2022-11-29T01:30:27.844Z,1.45
2022-11-29T01:31:31.473Z,1.52
2022-11-29T01:32:33.005Z,1.49
2022-11-29T01:33:35.036Z,1.48
2022-11-29T01:34:37.245Z,1.48
2022-11-29T01:35:39.108Z,1.48
2022-11-29T01:36:40.655Z,1.51
2022-11-29T01:37:42.293Z,1.48
2022-11-29T01:38:43.891Z,1.46
2022-11-29T01:39:45.435Z,1.49
2022-11-29T01:41:03.286Z,1.51
2022-11-29T01:42:04.993Z,1.48
2022-11-29T01:43:16.147Z,1.49
2022-11-29T01:44:17.868Z,1.46
2022-11-29T01:45:22.449Z,1.49
2022-11-29T01:46:24.727Z,1.51
2022-11-29T01:47:26.312Z,1.54
2022-11-29T01:48:29.977Z,1.51
2022-11-29T01:49:37.584Z,1.52
2022-11-29T01:50:39.531Z,1.49
2022-11-29T01:51:43.089Z,1.51
2022-11-29T01:52:44.629Z,1.48
2022-11-29T01:53:46.276Z,1.48
2022-11-29T01:54:49.569Z,1.49
2022-11-29T01:55:53.360Z,1.51
2022-11-29T01:56:55.133Z,1.48
2022-11-29T01:57:56.671Z,1.46
2022-11-29T01:58:58.254Z,1.48
2022-11-29T02:00:03.516Z,1.48
2022-11-29T02:01:05.146Z,1.51
2022-11-29T02:02:10.224Z,1.49
2022-11-29T02:03:13.218Z,1.51
2022-11-29T02:04:14.820Z,1.51
2022-11-29T02:05:16.872Z,1.48
2022-11-29T02:06:18.441Z,1.46
2022-11-29T02:07:20.012Z,1.46
2022-11-29T02:08:31.973Z,1.45
2022-11-29T02:09:33.621Z,1.46
2022-11-29T02:11:12.149Z,1.44
2022-11-29T02:12:22.599Z,1.44
2022-11-29T02:13:39.218Z,1.45
2022-11-29T02:15:17.202Z,1.45
2022-11-29T02:16:34.667Z,1.45
2022-11-29T02:17:43.496Z,1.45
2022-11-29T02:19:01.949Z,1.44
2022-11-29T02:20:22.864Z,1.42
2022-11-29T02:21:54.869Z,1.45
2022-11-29T02:23:23.658Z,1.46
2022-11-29T02:24:49.251Z,1.46
2022-11-29T02:26:14.893Z,1.49
2022-11-29T02:27:43.631Z,1.48
2022-11-29T02:29:06.442Z,1.51
2022-11-29T02:30:24.469Z,1.48
2022-11-29T02:31:38.144Z,1.49
2022-11-29T02:32:42.654Z,1.48
2022-11-29T02:34:08.748Z,1.48
2022-11-29T02:35:19.338Z,1.44
2022-11-29T02:36:30.379Z,1.46
2022-11-29T02:37:47.967Z,1.49
2022-11-29T02:39:02.239Z,1.51
2022-11-29T02:40:34.999Z,1.51
2022-11-29T02:41:42.429Z,1.48
2022-11-29T02:42:56.464Z,1.45
2022-11-29T02:44:29.431Z,1.45
2022-11-29T02:45:43.086Z,1.45
2022-11-29T02:47:10.570Z,1.42
2022-11-29T02:48:22.489Z,1.46
2022-11-29T02:49:34.321Z,1.48
2022-11-29T02:50:42.637Z,1.46
2022-11-29T02:51:50.558Z,1.45
2022-11-29T02:53:01.203Z,1.44
2022-11-29T02:54:24.068Z,1.45
2022-11-29T02:55:46.676Z,1.42
2022-11-29T02:57:04.724Z,1.41
2022-11-29T02:58:17.068Z,1.42
2022-11-29T02:59:27.467Z,1.42
2022-11-29T03:00:29.202Z,1.44
2022-11-29T03:01:41.887Z,1.44
2022-11-29T03:02:52.127Z,1.44
2022-11-29T03:04:02.750Z,1.42
2022-11-29T03:05:37.453Z,1.38
2022-11-29T03:07:06.470Z,1.36
2022-11-29T03:08:36.180Z,1.36
2022-11-29T03:09:45.166Z,1.36
2022-11-29T03:11:16.817Z,1.38
2022-11-29T03:12:33.921Z,1.36
2022-11-29T03:13:41.260Z,1.35
2022-11-29T03:15:02.758Z,1.35
2022-11-29T03:16:29.999Z,1.39
2022-11-29T03:17:38.737Z,1.39
2022-11-29T03:19:18.223Z,1.41
2022-11-29T03:20:28.814Z,1.39
2022-11-29T03:21:37.444Z,1.44
2022-11-29T03:22:46.392Z,1.42
2022-11-29T03:23:52.923Z,1.44
2022-11-29T03:25:07.348Z,1.44
2022-11-29T03:26:11.229Z,1.42
2022-11-29T03:27:14.541Z,1.44
2022-11-29T03:28:23.722Z,1.39
2022-11-29T03:29:29.633Z,1.41
2022-11-29T03:30:32.705Z,1.41
2022-11-29T03:31:43.803Z,1.44
2022-11-29T03:33:03.130Z,1.44
2022-11-29T03:34:39.221Z,1.45
2022-11-29T03:35:50.672Z,1.45
2022-11-29T03:36:58.890Z,1.48
2022-11-29T03:38:09.461Z,1.48
2022-11-29T03:39:17.642Z,1.46
2022-11-29T03:40:21.594Z,1.48
2022-11-29T03:41:37.023Z,1.48
2022-11-29T03:42:43.552Z,1.48
2022-11-29T03:43:56.047Z,1.46
2022-11-29T03:45:03.684Z,1.48
2022-11-29T03:46:09.096Z,1.48
2022-11-29T03:47:15.262Z,1.48
2022-11-29T03:48:37.842Z,1.45
2022-11-29T03:49:53.706Z,1.45
2022-11-29T03:50:58.070Z,1.45
2022-11-29T03:52:19.627Z,1.44
2022-11-29T03:53:29.340Z,1.48
2022-11-29T03:54:38.329Z,1.46
2022-11-29T03:55:52.553Z,1.51
2022-11-29T03:56:54.640Z,1.49
2022-11-29T03:58:05.745Z,1.51
2022-11-29T03:59:07.230Z,1.52
2022-11-29T04:00:13.152Z,1.54
2022-11-29T04:01:35.957Z,1.58
2022-11-29T04:02:46.793Z,1.60
2022-11-29T04:04:12.468Z,1.65
2022-11-29T04:05:20.106Z,1.66
2022-11-29T04:06:47.019Z,1.63
2022-11-29T04:07:57.471Z,1.69
2022-11-29T04:09:23.964Z,1.66
2022-11-29T04:11:07.952Z,1.69
2022-11-29T04:12:21.760Z,1.60
2022-11-29T04:13:29.314Z,1.63
2022-11-29T04:14:39.780Z,1.58
2022-11-29T04:15:41.296Z,1.52
2022-11-29T04:17:05.162Z,1.54
2022-11-29T04:18:28.974Z,1.51
2022-11-29T04:19:36.395Z,1.49
2022-11-29T04:21:07.050Z,1.51
2022-11-29T04:22:24.137Z,1.46
2022-11-29T04:23:53.009Z,1.42
2022-11-29T04:25:26.947Z,1.41
2022-11-29T04:26:50.977Z,1.39
2022-11-29T04:28:13.686Z,1.36
2022-11-29T04:29:50.680Z,1.34
2022-11-29T04:31:04.114Z,1.35
2022-11-29T04:32:31.566Z,1.32
2022-11-29T04:33:51.129Z,1.34
2022-11-29T04:35:14.062Z,1.36
2022-11-29T04:36:31.487Z,1.30
2022-11-29T04:37:41.954Z,1.27
2022-11-29T04:39:02.344Z,1.25
2022-11-29T04:40:22.896Z,1.21
2022-11-29T04:42:10.652Z,1.21
2022-11-29T04:43:33.807Z,1.22
2022-11-29T04:45:00.925Z,1.21
2022-11-29T04:46:41.495Z,1.22
2022-11-29T04:47:52.191Z,1.24
2022-11-29T04:49:27.712Z,1.22
2022-11-29T04:50:41.368Z,1.21
2022-11-29T04:52:20.639Z,1.22
2022-11-29T04:53:34.111Z,1.22
2022-11-29T04:54:43.404Z,1.24
2022-11-29T04:56:04.296Z,1.22
2022-11-29T04:57:34.392Z,1.24
2022-11-29T04:58:52.123Z,1.25
2022-11-29T05:00:10.110Z,1.30
2022-11-29T05:01:30.353Z,1.30
2022-11-29T05:03:01.463Z,1.28
2022-11-29T05:04:22.130Z,1.28
2022-11-29T05:05:24.556Z,1.27
2022-11-29T05:06:32.740Z,1.28
2022-11-29T05:07:53.058Z,1.25
2022-11-29T05:09:07.237Z,1.28
2022-11-29T05:10:52.815Z,1.32
2022-11-29T05:12:09.360Z,1.35
2022-11-29T05:13:31.483Z,1.34
2022-11-29T05:15:14.842Z,1.39
2022-11-29T05:16:37.448Z,1.39
2022-11-29T05:18:05.616Z,1.35
2022-11-29T05:19:29.844Z,1.36
2022-11-29T05:20:36.696Z,1.41
2022-11-29T05:21:47.380Z,1.44
2022-11-29T05:22:51.778Z,1.41
2022-11-29T05:24:19.423Z,1.45
2022-11-29T05:25:32.628Z,1.46
2022-11-29T05:26:41.690Z,1.45
2022-11-29T05:27:51.500Z,1.46
2022-11-29T05:28:58.859Z,1.51
2022-11-29T05:30:03.141Z,1.49
2022-11-29T05:31:26.317Z,1.45
2022-11-29T05:32:34.954Z,1.42
2022-11-29T05:34:00.975Z,1.39
2022-11-29T05:35:27.372Z,1.38
2022-11-29T05:36:31.720Z,1.39
2022-11-29T05:37:38.143Z,1.39
2022-11-29T05:38:49.178Z,1.41
2022-11-29T05:40:22.647Z,1.39
2022-11-29T05:41:46.509Z,1.45
2022-11-29T05:42:55.113Z,1.44
2022-11-29T05:44:27.875Z,1.48
2022-11-29T05:45:34.709Z,1.42
2022-11-29T05:46:50.050Z,1.41
2022-11-29T05:47:55.295Z,1.36
2022-11-29T05:49:24.041Z,1.41
2022-11-29T05:50:57.534Z,1.45
2022-11-29T05:52:17.589Z,1.48
2022-11-29T05:53:25.703Z,1.51
2022-11-29T05:54:32.670Z,1.51
2022-11-29T05:55:55.200Z,1.54
2022-11-29T05:57:18.662Z,1.54
2022-11-29T05:58:47.926Z,1.48
2022-11-29T05:59:49.737Z,1.46
2022-11-29T06:01:15.923Z,1.42
2022-11-29T06:02:26.529Z,1.45
2022-11-29T06:03:39.364Z,1.45
2022-11-29T06:04:40.920Z,1.44
2022-11-29T06:05:56.709Z,1.42
2022-11-29T06:07:07.393Z,1.46
2022-11-29T06:08:43.038Z,1.46
2022-11-29T06:09:50.270Z,1.46
2022-11-29T06:11:02.741Z,1.46
2022-11-29T06:12:14.902Z,1.51
2022-11-29T06:13:35.857Z,1.54
2022-11-29T06:15:17.273Z,1.51
2022-11-29T06:16:24.917Z,1.42
2022-11-29T06:17:53.047Z,1.41
2022-11-29T06:19:03.400Z,1.42
2022-11-29T06:20:26.827Z,1.42
2022-11-29T06:21:45.141Z,1.39
2022-11-29T06:22:52.816Z,1.35
2022-11-29T06:24:00.872Z,1.38
2022-11-29T06:25:07.836Z,1.36
2022-11-29T06:26:29.180Z,1.38
2022-11-29T06:28:02.400Z,1.42
2022-11-29T06:29:25.276Z,1.46
2022-11-29T06:30:29.593Z,1.48
2022-11-29T06:31:43.442Z,1.51
2022-11-29T06:32:56.825Z,1.51
2022-11-29T06:34:10.314Z,1.55
2022-11-29T06:35:39.398Z,1.58
2022-11-29T06:36:56.193Z,1.55
2022-11-29T06:37:57.777Z,1.62
2022-11-29T06:38:59.580Z,1.67
2022-11-29T06:40:01.385Z,1.69
2022-11-29T06:41:03.118Z,1.67
2022-11-29T06:42:04.790Z,1.69
2022-11-29T06:43:06.648Z,1.66
2022-11-29T06:44:09.415Z,1.63
2022-11-29T06:45:12.633Z,1.65
2022-11-29T06:46:26.425Z,1.66
2022-11-29T06:47:49.965Z,1.67
2022-11-29T06:49:33.522Z,1.72
2022-11-29T06:50:43.208Z,1.76
2022-11-29T06:51:50.787Z,1.82
2022-11-29T06:53:27.462Z,1.80
2022-11-29T06:54:42.279Z,1.79
2022-11-29T06:55:49.813Z,1.79
2022-11-29T06:57:17.018Z,1.80
2022-11-29T06:58:35.989Z,1.76
2022-11-29T06:59:57.154Z,1.76
2022-11-29T07:01:07.727Z,1.70
2022-11-29T07:02:36.238Z,1.69
2022-11-29T07:03:56.134Z,1.65
2022-11-29T07:05:14.783Z,1.63
2022-11-29T07:06:25.521Z,1.58
2022-11-29T07:07:27.349Z,1.59
2022-11-29T07:08:29.114Z,1.58
2022-11-29T07:09:33.755Z,1.59
2022-11-29T07:10:37.382Z,1.59
2022-11-29T07:11:39.400Z,1.59
2022-11-29T07:12:41.266Z,1.59
2022-11-29T07:13:43.070Z,1.60
2022-11-29T07:14:45.481Z,1.65
2022-11-29T07:16:08.998Z,1.65
2022-11-29T07:17:37.694Z,1.66
2022-11-29T07:18:44.668Z,1.65
2022-11-29T07:20:04.428Z,1.63
2022-11-29T07:21:20.560Z,1.63
2022-11-29T07:22:34.350Z,1.59
2022-11-29T07:23:36.593Z,1.60
2022-11-29T07:24:56.487Z,1.60
2022-11-29T07:26:00.907Z,1.60
2022-11-29T07:27:15.962Z,1.60
2022-11-29T07:28:30.987Z,1.62
2022-11-29T07:29:35.109Z,1.58
2022-11-29T07:31:10.776Z,1.51
2022-11-29T07:32:34.492Z,1.45
2022-11-29T07:33:51.256Z,1.45
2022-11-29T07:35:03.583Z,1.46
2022-11-29T07:36:16.230Z,1.39
2022-11-29T07:37:26.378Z,1.44
2022-11-29T07:39:01.830Z,1.46
2022-11-29T07:40:11.067Z,1.44
2022-11-29T07:41:20.153Z,1.48
2022-11-29T07:42:30.510Z,1.51
2022-11-29T07:43:41.270Z,1.49
2022-11-29T07:44:58.987Z,1.52
2022-11-29T07:46:00.538Z,1.56
2022-11-29T07:47:02.116Z,1.55
2022-11-29T07:48:04.098Z,1.52
2022-11-29T07:49:06.009Z,1.51
2022-11-29T07:50:08.057Z,1.49
2022-11-29T07:51:09.614Z,1.52
2022-11-29T07:52:12.442Z,1.49
2022-11-29T07:53:17.891Z,1.51
2022-11-29T07:54:19.908Z,1.46
2022-11-29T07:55:22.459Z,1.49
2022-11-29T07:56:24.011Z,1.46
2022-11-29T07:57:25.549Z,1.52
2022-11-29T07:58:27.138Z,1.51
2022-11-29T07:59:28.703Z,1.52
2022-11-29T08:00:30.319Z,1.54
2022-11-29T08:01:31.871Z,1.56
2022-11-29T08:02:33.538Z,1.60
2022-11-29T08:03:35.665Z,1.58
2022-11-29T08:04:42.292Z,1.63
2022-11-29T08:05:46.150Z,1.62
2022-11-29T08:06:47.862Z,1.65
2022-11-29T08:07:49.508Z,1.65
2022-11-29T08:08:51.098Z,1.66
2022-11-29T08:09:52.697Z,1.65
2022-11-29T08:10:54.301Z,1.66
2022-11-29T08:11:55.862Z,1.67
2022-11-29T08:12:57.509Z,1.70
2022-11-29T08:14:03.472Z,1.75
2022-11-29T08:15:05.683Z,1.73
2022-11-29T08:16:07.570Z,1.76
2022-11-29T08:17:09.237Z,1.75
2022-11-29T08:18:10.806Z,1.77
2022-11-29T08:19:12.349Z,1.72
2022-11-29T08:20:14.842Z,1.75
2022-11-29T08:21:18.191Z,1.73
2022-11-29T08:22:19.898Z,1.77
2022-11-29T08:23:21.521Z,1.80
2022-11-29T08:24:23.093Z,1.83
2022-11-29T08:25:25.473Z,1.89
2022-11-29T08:26:31.366Z,1.95
2022-11-29T08:27:34.086Z,1.95
2022-11-29T08:28:35.665Z,1.99
2022-11-29T08:29:37.297Z,2.02
2022-11-29T08:30:38.959Z,2.07
2022-11-29T08:31:40.579Z,2.07
2022-11-29T08:32:44.848Z,2.07
2022-11-29T08:33:50.125Z,2.07
2022-11-29T08:34:51.699Z,2.11
2022-11-29T08:35:53.327Z,2.13
2022-11-29T08:36:55.599Z,2.20
2022-11-29T08:37:57.192Z,2.21
2022-11-29T08:39:05.936Z,2.26
2022-11-29T08:40:10.992Z,2.28
2022-11-29T08:41:14.481Z,2.31
2022-11-29T08:42:16.063Z,2.27
2022-11-29T08:43:17.635Z,2.28
2022-11-29T08:44:19.479Z,2.33
2022-11-29T08:45:21.043Z,2.31
2022-11-29T08:46:22.786Z,2.34
2022-11-29T08:47:36.332Z,2.37
2022-11-29T08:48:37.872Z,2.38
2022-11-29T08:49:59.391Z,2.42
2022-11-29T08:51:01.017Z,2.45
2022-11-29T08:52:41.076Z,2.48
2022-11-29T08:53:42.862Z,2.48
2022-11-29T08:54:44.927Z,2.51
2022-11-29T08:55:46.989Z,2.52
2022-11-29T08:58:11.894Z,2.50
2022-11-29T08:59:13.445Z,2.55
2022-11-29T09:00:15.327Z,2.57
2022-11-29T09:01:17.983Z,2.59
2022-11-29T09:02:19.889Z,2.59
2022-11-29T09:03:40.027Z,2.66
2022-11-29T09:04:41.651Z,2.68
2022-11-29T09:05:43.677Z,2.75
2022-11-29T09:06:45.251Z,2.84
2022-11-29T09:07:47.118Z,2.89
2022-11-29T09:08:48.673Z,2.92
2022-11-29T09:09:50.224Z,2.95
2022-11-29T09:10:51.799Z,3.03
2022-11-29T09:11:53.450Z,3.05
2022-11-29T09:12:55.192Z,3.09
2022-11-29T09:13:58.481Z,3.09
2022-11-29T09:15:00.139Z,3.08
2022-11-29T09:16:07.134Z,3.05
2022-11-29T09:17:08.806Z,3.02
2022-11-29T09:18:10.415Z,3.01
2022-11-29T09:19:13.662Z,3.05
2022-11-29T09:20:15.268Z,3.02
2022-11-29T09:21:16.978Z,2.99
2022-11-29T09:22:18.542Z,3.03
2022-11-29T09:23:20.164Z,3.05
2022-11-29T09:24:21.728Z,3.02
2022-11-29T09:25:23.298Z,3.03
2022-11-29T09:26:27.304Z,3.03
2022-11-29T09:27:28.960Z,3.01
2022-11-29T09:28:30.797Z,3.03
2022-11-29T09:29:32.463Z,3.06
2022-11-29T09:30:36.589Z,3.16
2022-11-29T09:31:38.215Z,3.19
2022-11-29T09:32:39.822Z,3.24
2022-11-29T09:33:41.474Z,3.26
2022-11-29T09:34:43.327Z,3.26
2022-11-29T09:35:45.298Z,3.26
2022-11-29T09:36:47.877Z,3.27
2022-11-29T09:37:49.454Z,3.22
2022-11-29T09:38:51.012Z,3.22
2022-11-29T09:39:52.556Z,3.18
2022-11-29T09:40:55.779Z,3.13
2022-11-29T09:41:57.275Z,3.09
2022-11-29T09:43:17.729Z,3.15
2022-11-29T09:44:31.594Z,3.16
2022-11-29T09:45:37.437Z,3.19
2022-11-29T09:46:45.223Z,3.19
2022-11-29T09:48:02.358Z,3.18
2022-11-29T09:49:07.884Z,3.16
2022-11-29T09:50:36.371Z,3.19
2022-11-29T09:51:55.729Z,3.18
2022-11-29T09:53:20.938Z,3.16
2022-11-29T09:54:36.102Z,3.22
2022-11-29T09:55:56.152Z,3.24
2022-11-29T09:56:57.725Z,3.29
2022-11-29T09:57:59.691Z,3.27
2022-11-29T09:59:12.117Z,3.32
2022-11-29T10:00:18.127Z,3.33
2022-11-29T10:01:23.555Z,3.44
2022-11-29T10:02:59.078Z,3.54
2022-11-29T10:04:02.731Z,3.53
2022-11-29T10:05:10.411Z,3.57
2022-11-29T10:06:24.751Z,3.60
2022-11-29T10:07:37.538Z,3.60
2022-11-29T10:08:45.581Z,3.63
2022-11-29T10:09:52.395Z,3.60
2022-11-29T10:10:57.635Z,3.59
2022-11-29T10:12:36.156Z,3.60
2022-11-29T10:13:40.573Z,3.57
2022-11-29T10:15:09.111Z,3.59
2022-11-29T10:16:19.621Z,3.63
2022-11-29T10:17:34.534Z,3.63
2022-11-29T10:18:48.821Z,3.64
2022-11-29T10:19:51.913Z,3.66
2022-11-29T10:20:54.326Z,3.70
2022-11-29T10:22:02.341Z,3.75
2022-11-29T10:23:36.638Z,3.78
2022-11-29T10:24:38.178Z,3.77
2022-11-29T10:25:44.660Z,3.78
2022-11-29T10:26:46.534Z,3.78
2022-11-29T10:27:48.125Z,3.74
2022-11-29T10:28:49.759Z,3.74
2022-11-29T10:29:51.474Z,3.71
2022-11-29T10:30:54.166Z,3.71
2022-11-29T10:31:56.956Z,3.73
2022-11-29T10:32:59.432Z,3.73
2022-11-29T10:34:02.572Z,3.70
2022-11-29T10:35:06.065Z,3.69
2022-11-29T10:36:23.876Z,3.64
2022-11-29T10:37:25.469Z,3.64
2022-11-29T10:38:31.399Z,3.69
2022-11-29T10:39:45.488Z,3.67
2022-11-29T10:40:48.155Z,3.62
2022-11-29T10:41:51.751Z,3.56
2022-11-29T10:42:53.879Z,3.54
2022-11-29T10:43:58.043Z,3.60
2022-11-29T10:45:00.140Z,3.54
2022-11-29T10:46:02.643Z,3.54
2022-11-29T10:47:09.317Z,3.57
2022-11-29T10:48:23.098Z,3.57
2022-11-29T10:49:26.171Z,3.52
2022-11-29T10:50:29.408Z,3.52
2022-11-29T10:51:31.213Z,3.50
2022-11-29T10:52:32.904Z,3.54
2022-11-29T10:53:37.595Z,3.54
2022-11-29T10:54:41.450Z,3.54
2022-11-29T10:56:07.488Z,3.57
2022-11-29T10:57:16.558Z,3.59
2022-11-29T10:58:28.415Z,3.60
2022-11-29T10:59:30.693Z,3.57
2022-11-29T11:00:32.240Z,3.56
2022-11-29T11:01:43.018Z,3.53
2022-11-29T11:02:44.596Z,3.52
2022-11-29T11:03:55.357Z,3.56
2022-11-29T11:04:57.227Z,3.62
2022-11-29T11:06:00.788Z,3.63
2022-11-29T11:07:03.551Z,3.57
2022-11-29T11:08:05.673Z,3.57
2022-11-29T11:09:31.005Z,3.53
2022-11-29T11:10:32.622Z,3.54
2022-11-29T11:11:34.192Z,3.52
2022-11-29T11:12:37.110Z,3.52
2022-11-29T11:13:39.490Z,3.53
2022-11-29T11:14:41.219Z,3.53
2022-11-29T11:15:42.792Z,3.57
2022-11-29T11:16:44.446Z,3.57
2022-11-29T11:17:56.977Z,3.47
2022-11-29T11:18:58.647Z,3.52
2022-11-29T11:20:05.876Z,3.50
2022-11-29T11:21:11.928Z,3.53
2022-11-29T11:22:20.518Z,3.54
2022-11-29T11:23:38.654Z,3.50
2022-11-29T11:24:43.259Z,3.53
2022-11-29T11:25:45.656Z,3.53
2022-11-29T11:26:47.274Z,3.50
2022-11-29T11:27:48.820Z,3.54
2022-11-29T11:28:58.394Z,3.56
2022-11-29T11:30:00.168Z,3.59
2022-11-29T11:31:03.666Z,3.64
2022-11-29T11:32:05.512Z,3.62
2022-11-29T11:33:25.349Z,3.59
2022-11-29T11:34:36.877Z,3.59
2022-11-29T11:35:38.410Z,3.63
2022-11-29T11:36:40.022Z,3.67
2022-11-29T11:37:41.647Z,3.70
2022-11-29T11:38:53.354Z,3.71
2022-11-29T11:39:59.992Z,3.74
2022-11-29T11:41:16.686Z,3.73
2022-11-29T11:42:39.622Z,3.74
2022-11-29T11:43:41.349Z,3.74
2022-11-29T11:44:49.863Z,3.78
2022-11-29T11:45:52.366Z,3.78
2022-11-29T11:46:54.000Z,3.83
2022-11-29T11:47:58.205Z,3.81
2022-11-29T11:48:59.740Z,3.80
2022-11-29T11:50:04.033Z,3.83
2022-11-29T11:51:05.673Z,3.87
2022-11-29T11:52:07.369Z,3.85
2022-11-29T11:53:19.326Z,3.85
2022-11-29T11:54:20.931Z,3.87
2022-11-29T11:55:25.054Z,3.88
2022-11-29T11:56:27.843Z,3.88
2022-11-29T11:57:29.458Z,3.85
2022-11-29T11:58:44.033Z,3.87
2022-11-29T11:59:49.811Z,3.74
2022-11-29T12:01:13.380Z,3.77
2022-11-29T12:02:26.425Z,3.71
2022-11-29T12:03:46.600Z,3.71
2022-11-29T12:04:48.173Z,3.66
2022-11-29T12:05:49.991Z,3.60
2022-11-29T12:06:53.401Z,3.56
2022-11-29T12:08:13.632Z,3.62
2022-11-29T12:09:19.500Z,3.67
2022-11-29T12:10:24.640Z,3.73
2022-11-29T12:11:26.273Z,3.75
2022-11-29T12:12:32.870Z,3.84
2022-11-29T12:13:35.835Z,3.85
2022-11-29T12:14:59.515Z,3.84
2022-11-29T12:16:04.107Z,3.90
2022-11-29T12:17:19.652Z,3.93
2022-11-29T12:18:33.703Z,3.98
2022-11-29T12:19:40.998Z,4.02
2022-11-29T12:20:46.817Z,4.06
2022-11-29T12:21:52.601Z,4.06
2022-11-29T12:22:54.089Z,4.04
2022-11-29T12:24:28.864Z,4.09
2022-11-29T12:25:33.437Z,4.11
2022-11-29T12:28:00.740Z,4.06
2022-11-29T12:29:02.403Z,4.05
2022-11-29T12:30:11.817Z,4.09
2022-11-29T12:31:22.137Z,4.15
2022-11-29T12:32:30.110Z,4.12
2022-11-29T12:33:49.121Z,4.21
2022-11-29T12:35:18.604Z,4.16
2022-11-29T12:36:26.596Z,4.25
2022-11-29T12:37:45.598Z,4.21
2022-11-29T12:38:56.162Z,4.19
2022-11-29T12:40:27.478Z,4.19
2022-11-29T12:41:54.042Z,4.19
2022-11-29T12:43:13.003Z,4.18
2022-11-29T12:44:37.857Z,4.14
2022-11-29T12:45:49.636Z,4.16
2022-11-29T12:47:34.117Z,4.16
2022-11-29T12:48:30.681Z,4.08
2022-11-29T12:49:43.576Z,4.08
2022-11-29T12:51:20.235Z,4.02
2022-11-29T12:52:44.759Z,4.04
2022-11-29T12:53:53.935Z,4.06
2022-11-29T12:55:16.847Z,4.09
2022-11-29T12:56:33.495Z,4.16
2022-11-29T12:57:43.638Z,4.22
2022-11-29T12:59:14.168Z,4.24
2022-11-29T13:00:16.754Z,4.26
2022-11-29T13:01:30.329Z,4.15
2022-11-29T13:02:37.922Z,4.14
2022-11-29T13:03:49.597Z,4.11
2022-11-29T13:05:09.637Z,4.06
2022-11-29T13:06:39.113Z,4.09
2022-11-29T13:08:02.886Z,4.02
2022-11-29T13:09:04.525Z,3.98
2022-11-29T13:10:25.581Z,3.94
2022-11-29T13:11:32.185Z,3.98
2022-11-29T13:12:41.797Z,3.94
2022-11-29T13:13:53.274Z,3.93
2022-11-29T13:15:03.936Z,3.91
2022-11-29T13:17:54.822Z,3.87
2022-11-29T13:19:05.690Z,3.91
2022-11-29T13:20:30.836Z,3.98
2022-11-29T13:21:39.315Z,3.99
2022-11-29T13:22:50.229Z,4.02
2022-11-29T13:24:10.183Z,4.01
2022-11-29T13:25:26.007Z,4.04
2022-11-29T13:26:28.008Z,4.05
2022-11-29T13:27:38.464Z,4.09
2022-11-29T13:28:41.294Z,4.08
2022-11-29T13:29:42.866Z,4.12
2022-11-29T13:30:44.486Z,4.16
2022-11-29T13:31:46.371Z,4.18
2022-11-29T13:32:51.315Z,4.19
2022-11-29T13:34:24.153Z,4.26
2022-11-29T13:35:46.908Z,4.29
2022-11-29T13:36:59.780Z,4.32
2022-11-29T13:38:07.928Z,4.35
2022-11-29T13:39:33.558Z,4.28
2022-11-29T13:40:38.660Z,4.28
2022-11-29T13:41:48.423Z,4.31
2022-11-29T13:43:01.737Z,4.25
2022-11-29T13:44:21.639Z,4.18
2022-11-29T13:45:51.258Z,4.09
2022-11-29T13:47:06.855Z,4.04
2022-11-29T13:48:48.400Z,3.99
2022-11-29T13:49:53.041Z,4.01
2022-11-29T13:50:55.811Z,3.97
2022-11-29T13:52:04.658Z,3.98
2022-11-29T13:53:13.572Z,3.97
2022-11-29T13:54:26.989Z,3.93
2022-11-29T13:55:31.664Z,3.93
2022-11-29T13:56:46.611Z,3.97
2022-11-29T13:58:15.094Z,3.97
2022-11-29T13:59:22.996Z,3.97
2022-11-29T14:00:27.478Z,3.98
2022-11-29T14:01:29.130Z,3.99
2022-11-29T14:02:31.173Z,4.02
2022-11-29T14:03:45.481Z,3.98
2022-11-29T14:04:47.244Z,3.95
2022-11-29T14:06:21.137Z,3.95
2022-11-29T14:07:23.044Z,3.93
2022-11-29T14:09:02.037Z,3.95
2022-11-29T14:10:06.082Z,3.91
2022-11-29T14:11:13.459Z,3.88
2022-11-29T14:12:28.989Z,3.90
2022-11-29T14:13:37.713Z,3.90
2022-11-29T14:14:49.354Z,3.88
2022-11-29T14:15:55.303Z,3.84
2022-11-29T14:17:04.811Z,3.80
2022-11-29T14:18:08.914Z,3.77
2022-11-29T14:19:10.454Z,3.74
2022-11-29T14:20:25.008Z,3.70
2022-11-29T14:21:26.560Z,3.67
2022-11-29T14:22:28.138Z,3.67
2022-11-29T14:23:35.567Z,3.67
2022-11-29T14:24:37.301Z,3.70
2022-11-29T14:25:51.813Z,3.69
2022-11-29T14:26:53.912Z,3.73
2022-11-29T14:27:56.895Z,3.77
2022-11-29T14:28:58.619Z,3.78
2022-11-29T14:30:00.331Z,3.75
2022-11-29T14:31:02.692Z,3.77
2022-11-29T14:32:04.352Z,3.78
2022-11-29T14:33:18.145Z,3.81
2022-11-29T14:34:23.437Z,3.81
2022-11-29T14:36:14.055Z,3.81
2022-11-29T14:37:53.360Z,3.73
2022-11-29T14:39:15.831Z,3.71
2022-11-29T14:40:42.067Z,3.70
2022-11-29T14:41:55.763Z,3.70
2022-11-29T14:42:57.350Z,3.69
2022-11-29T14:44:17.993Z,3.64
2022-11-29T14:45:37.791Z,3.63
2022-11-29T14:46:39.503Z,3.62
2022-11-29T14:47:48.021Z,3.66
2022-11-29T14:48:55.566Z,3.69
2022-11-29T14:49:57.766Z,3.69
2022-11-29T14:51:14.959Z,3.67
2022-11-29T14:52:19.070Z,3.67
2022-11-29T14:53:33.845Z,3.67
2022-11-29T14:54:35.627Z,3.69
2022-11-29T14:55:37.646Z,3.69
2022-11-29T14:56:43.801Z,3.69
2022-11-29T14:57:48.080Z,3.67
2022-11-29T14:59:27.996Z,3.70
2022-11-29T15:00:32.721Z,3.69
2022-11-29T15:01:34.336Z,3.70
2022-11-29T15:02:39.908Z,3.74
2022-11-29T15:03:48.206Z,3.80
2022-11-29T15:04:50.968Z,3.81
2022-11-29T15:06:06.320Z,3.85
2022-11-29T15:07:13.182Z,3.93
2022-11-29T15:08:27.742Z,3.87
2022-11-29T15:09:29.379Z,3.91
2022-11-29T15:10:31.642Z,3.90
2022-11-29T15:12:24.022Z,3.90
2022-11-29T15:13:31.449Z,3.97
2022-11-29T15:14:51.403Z,3.98
2022-11-29T15:16:08.733Z,3.99
2022-11-29T15:17:10.749Z,4.04
2022-11-29T15:18:49.153Z,3.98
2022-11-29T15:19:53.719Z,3.97
2022-11-29T15:21:01.949Z,3.88
2022-11-29T15:22:11.369Z,3.91
2022-11-29T15:23:15.010Z,3.85
2022-11-29T15:24:17.164Z,3.87
2022-11-29T15:25:21.118Z,3.83
2022-11-29T15:26:22.673Z,3.80
2022-11-29T15:27:24.312Z,3.74
2022-11-29T15:28:27.728Z,3.74
2022-11-29T15:29:30.089Z,3.71
2022-11-29T15:30:34.470Z,3.70
2022-11-29T15:31:36.116Z,3.69
2022-11-29T15:32:37.756Z,3.50
2022-11-29T15:33:40.394Z,3.57
2022-11-29T15:34:45.033Z,3.59
2022-11-29T15:35:54.478Z,3.59
2022-11-29T15:36:56.089Z,3.60